Aeroporto :
LOGIN :

Iscrizione | Disclaimer

   EN    FR    IT 

 










Sommario :    VFR   VFR Marginale   IFR   IFR Intensivo   IFR Molto Intensivo
Visibilità : 
Base nubi : 
>= 8 km
>= 3000ft
5 / 8 km
1000 / 3000 ft
1500m / 5 km
500 / 1000 ft
800 / 1500m
200 / 500 ft
< 800m
< 200 ft
Simboli :   Temporali  Nebbia  Neve Forte  Precipitazioni Forti  Vento > 20 kt
SIGMETs :   Varie  Temporali  Ghiacco  Turbolenza  Onda orograficha  Ceneri Vulcaniche






- Altitudine del aeroporto : 160 ft
- Codice IATA : LRT


LFRH - Lorient Lann Bihoue

ULTIMO METAR :
  • 220900Z AUTO /////KT //// R25///// R07///// // FEW015 SCT022 BKN038 16/13 Q1017

METARs OBSOLETI :
  • 220830Z AUTO /////KT //// R25///// R07///// // ////// 16/14 Q1017
  • 220800Z AUTO 26009KT 9999 SCT016 BKN025 OVC049 16/14 Q1017 TEMPO BKN012
  • 220730Z AUTO 27009KT 9999 BKN014 BKN022 BKN033 16/14 Q1017 NOSIG
  • 220700Z AUTO 28008KT 9999 BKN011 BKN052 15/14 Q1017 BECMG BKN030
  • 220630Z AUTO 27006KT 9999 SCT010 SCT014 BKN052 14/14 Q1017 NOSIG
  • 220600Z AUTO 27007KT 9999 FEW010 BKN054 14/14 Q1016 NOSIG
  • 220530Z AUTO 27007KT 9999 FEW008 OVC052 14/13 Q1016 NOSIG
  • 220500Z AUTO 26005KT 8000 FEW015 BKN054 13/13 Q1016 NOSIG
  • 220430Z AUTO 27005KT 9000 FEW014 OVC056 13/13 Q1016 NOSIG

TAF AMD TAF LFRH
Valido dal 22 a 07 ore il 23 a 06 ore UTC


220713Z 2207/2306 26010KT 9999 BKN030
TEMPO 2207/2215 BKN012
BECMG 2222/2224 VRB05KT BKN008
PROB30
TEMPO 2301/2306 BKN003 OVC008



MetMap, La meteo Aeronautica in un colpo d'occhio ! - Copyright ORBIFLY Dicembre 2007 - Disclaimer

ORBIFLY MET'MAP TEAM :

Programmazione e sviluppo : Alexandra Zaïnal
Concezione : Baudouin d'Aumeries
Supporto tecnico e logistico : Manuel Goepfert
Aiuto : Marc-Olivier Méhu
Aiuto per la traduzione : Arnaldo La Scala




FONTI E CREDITI :

   NOAA